Portada
METAR-TAF:

METAR-TAF

Aeroports :

Yap, Micronèsia

latitud: 09-29N, longitud: 138-05E, altitud: 28 m

Observació

L'informe es va fer fa 40 minuts, a les 07:52 UTC
Vent 6 kt amb direcció variable
Temperatura 29°C
Humitat 84%
Pressió 1007 hPa
Visibilitat: 19.3 km
Escasses núvols a una alçada de 1600 ft
Cel ennuvolat a una alçada de 13000 ft
Cel cobert a una alçada de 30000 ft

METAR: PTYA 120752Z VRB06KT 12SM FEW016 BKN130 OVC300 29/26 A2973 RMK MDT CU SW-W SLP069 T02900256

Hora: 18:32 (08:32 UTC)

Pronòstic

L'informe es va fer fa 2 hores i 59 minuts, a les 05:33 UTC
Pronòstic vàlid del 12 a les 06 UTC al 13 a les 06 UTC
Vent 11 kt del Sud
Visibilitat: 10 km
Núvols disperses a una alçada de 1600 ft
Núvols disperses a una alçada de 13000 ft
xàfecs en les proximitats

TAF: PTYA 120533Z 1206/1306 19011KT P6SM VCSH SCT016 SCT130

Observacions i pronòstics meteorològics de més de 4000 aeroports (METAR i TAF).

Les estacions disponibles són els punts grocs i vermells al mapa.

Posi el ratolí al punt desitjat per veure el nom de l'estació.

Feu clic per veure les observacions i els pronòstics meteorològics.

Per canviar el mapa: feu clic els botons verds amb una creu de color negre per apropar; al botó verd amb un guió per allunyar la imatge; o en les fletxes verdes per a mapes adjacents.


METAR-TAF: